Time;durP1;ratioP1;P1;durP2;ratioP2;P2;SDS_P1;SDS_P2;PMS_P1;PMS_P2;Temp;Humidity;BMP_temperature;BMP_pressure;BME280_temperature;BME280_humidity;BME280_pressure;Samples;Min_cycle;Max_cycle;Signal;HPM_P1;HPM_P2
2021/12/09 00:00:32;;;;;;;2.78;1.13;;;19.60;99.90;;;;;;4992523;28;20105;-64
2021/12/09 00:03:05;;;;;;;2.33;1.25;;;19.70;99.90;;;;;;4990815;28;20511;-65
2021/12/09 00:05:35;;;;;;;2.10;1.33;;;19.70;99.90;;;;;;4990032;28;20054;-65
2021/12/09 00:08:03;;;;;;;2.88;1.70;;;19.70;99.90;;;;;;4992397;28;20089;-66
2021/12/09 00:10:30;;;;;;;1.35;0.90;;;19.70;99.90;;;;;;4992154;28;20022;-64
2021/12/09 00:12:58;;;;;;;5.05;1.20;;;19.60;99.90;;;;;;4992361;28;20027;-67
2021/12/09 00:15:25;;;;;;;3.35;1.00;;;19.70;99.90;;;;;;4992279;28;20035;-65
2021/12/09 00:17:53;;;;;;;4.53;1.30;;;20.00;99.90;;;;;;4989824;28;20027;-66
2021/12/09 00:20:20;;;;;;;5.80;1.48;;;20.40;99.90;;;;;;4992108;28;20026;-65
2021/12/09 00:22:48;;;;;;;2.42;1.10;;;21.00;99.90;;;;;;4990481;28;20525;-64
2021/12/09 00:25:16;;;;;;;3.50;1.42;;;21.40;99.90;;;;;;4991210;28;20042;-65
2021/12/09 00:27:47;;;;;;;1.95;0.93;;;21.90;99.90;;;;;;4990917;28;20030;-65
2021/12/09 00:30:14;;;;;;;1.52;1.00;;;22.20;99.90;;;;;;4992437;28;20479;-65
2021/12/09 00:32:42;;;;;;;1.80;0.80;;;22.30;99.90;;;;;;4992232;28;20030;-67
2021/12/09 00:35:14;;;;;;;2.53;1.00;;;22.00;99.90;;;;;;4991975;28;20034;-65
2021/12/09 00:37:54;;;;;;;1.08;0.70;;;22.10;99.90;;;;;;4992364;28;20025;-65
2021/12/09 00:40:22;;;;;;;3.33;1.10;;;21.90;99.90;;;;;;4990856;28;20463;-65
2021/12/09 00:42:49;;;;;;;2.20;1.00;;;22.00;99.90;;;;;;4992083;28;20026;-65
2021/12/09 00:45:17;;;;;;;2.35;0.55;;;22.40;99.90;;;;;;4991706;28;20018;-66
2021/12/09 00:47:45;;;;;;;2.08;0.80;;;22.70;99.90;;;;;;4993622;28;20522;-66
2021/12/09 00:50:12;;;;;;;2.00;0.90;;;22.80;99.90;;;;;;4987957;28;20026;-65
2021/12/09 00:52:40;;;;;;;2.42;0.80;;;23.20;99.90;;;;;;4987217;28;20030;-65
2021/12/09 00:55:09;;;;;;;6.25;0.95;;;23.10;99.90;;;;;;4986059;28;20067;-64
2021/12/09 00:57:39;;;;;;;3.08;0.93;;;23.30;99.90;;;;;;4987111;28;20027;-65
2021/12/09 01:00:17;;;;;;;3.50;1.05;;;23.00;99.90;;;;;;4987698;28;20022;-65
2021/12/09 01:02:44;;;;;;;3.33;0.90;;;22.70;99.90;;;;;;4987407;28;20105;-65
2021/12/09 01:05:12;;;;;;;1.75;0.93;;;22.90;99.90;;;;;;4994017;28;20022;-64
2021/12/09 01:07:41;;;;;;;3.88;0.65;;;23.00;99.90;;;;;;4996597;28;20026;-64
2021/12/09 01:10:11;;;;;;;2.17;0.73;;;22.60;99.90;;;;;;4995940;28;20372;-63
2021/12/09 01:12:39;;;;;;;2.25;0.93;;;22.20;99.90;;;;;;4996360;28;20139;-64
2021/12/09 01:15:09;;;;;;;2.72;0.80;;;21.90;99.90;;;;;;4995350;28;21476;-65
2021/12/09 01:17:36;;;;;;;3.30;0.77;;;21.70;99.90;;;;;;4994481;28;20136;-63
2021/12/09 01:20:07;;;;;;;2.65;0.77;;;21.70;99.90;;;;;;4996294;28;20092;-65
2021/12/09 01:22:39;;;;;;;1.95;0.63;;;21.80;99.90;;;;;;4991122;28;20391;-64
2021/12/09 01:25:08;;;;;;;2.70;1.10;;;21.60;99.90;;;;;;4996072;28;20418;-65
2021/12/09 01:27:38;;;;;;;3.10;1.00;;;21.50;99.90;;;;;;4996164;28;20105;-63
2021/12/09 01:30:11;;;;;;;2.22;1.02;;;21.50;99.90;;;;;;4996181;28;20110;-64
2021/12/09 01:32:43;;;;;;;1.60;0.85;;;21.80;99.90;;;;;;4991309;28;20479;-64
2021/12/09 01:35:10;;;;;;;2.30;0.90;;;22.20;99.90;;;;;;4991259;28;20120;-64
2021/12/09 01:37:39;;;;;;;2.60;1.08;;;22.40;99.90;;;;;;4995532;28;20097;-64
2021/12/09 01:40:08;;;;;;;2.65;0.82;;;22.30;99.90;;;;;;4995768;28;20022;-63
2021/12/09 01:42:36;;;;;;;3.10;1.17;;;22.10;99.90;;;;;;4993425;28;20022;-63
2021/12/09 01:45:06;;;;;;;2.03;0.93;;;22.20;99.90;;;;;;4996003;28;20106;-64
2021/12/09 01:47:33;;;;;;;3.40;0.88;;;22.10;99.90;;;;;;4990501;28;20442;-63
2021/12/09 01:50:01;;;;;;;2.45;1.05;;;22.20;99.90;;;;;;4995439;28;20027;-64
2021/12/09 01:52:28;;;;;;;1.38;0.70;;;22.30;99.90;;;;;;4995329;28;20022;-64
2021/12/09 01:54:55;;;;;;;2.40;0.65;;;22.70;99.90;;;;;;4995663;28;20084;-63
2021/12/09 01:57:23;;;;;;;1.98;0.85;;;22.90;99.90;;;;;;4995549;28;20018;-63
2021/12/09 01:59:50;;;;;;;2.45;0.70;;;22.80;99.90;;;;;;4994047;28;20038;-64
2021/12/09 02:02:18;;;;;;;1.70;0.95;;;22.70;99.90;;;;;;4994906;28;20043;-64
2021/12/09 02:04:45;;;;;;;7.20;1.60;;;22.60;99.90;;;;;;4993790;28;20054;-64
2021/12/09 02:07:13;;;;;;;6.32;1.65;;;22.40;99.90;;;;;;4992857;28;20022;-63
2021/12/09 02:09:41;;;;;;;4.18;1.27;;;21.80;99.90;;;;;;4995174;28;20113;-63
2021/12/09 02:12:10;;;;;;;6.85;1.88;;;21.30;99.90;;;;;;4995064;28;20057;-63
2021/12/09 02:14:42;;;;;;;7.80;1.90;;;21.00;99.90;;;;;;4994406;28;20092;-63
2021/12/09 02:17:12;;;;;;;8.48;1.98;;;21.00;99.90;;;;;;4994451;28;20037;-63
2021/12/09 02:19:48;;;;;;;5.47;0.93;;;21.50;99.90;;;;;;4994509;28;20110;-64
2021/12/09 02:22:16;;;;;;;5.32;1.63;;;22.10;99.90;;;;;;4994279;28;20503;-63
2021/12/09 02:24:43;;;;;;;5.00;1.27;;;22.30;99.90;;;;;;4994390;28;20022;-66
2021/12/09 02:27:11;;;;;;;4.85;1.45;;;22.70;99.90;;;;;;4993593;28;20041;-66
2021/12/09 02:29:39;;;;;;;5.18;1.45;;;22.40;99.90;;;;;;4993928;28;20497;-64
2021/12/09 02:32:07;;;;;;;8.63;1.83;;;22.00;99.90;;;;;;4994114;28;20042;-64
2021/12/09 02:34:36;;;;;;;4.95;1.70;;;21.70;99.90;;;;;;4994021;28;20026;-63
2021/12/09 02:37:04;;;;;;;6.93;1.38;;;21.50;99.90;;;;;;4991762;28;20036;-63
2021/12/09 02:39:32;;;;;;;5.32;1.40;;;21.40;99.90;;;;;;4993403;28;20030;-63
2021/12/09 02:41:59;;;;;;;3.20;1.42;;;21.50;99.90;;;;;;4993726;28;20033;-63
2021/12/09 02:44:27;;;;;;;10.02;2.03;;;21.50;99.90;;;;;;4993755;28;20026;-64
2021/12/09 02:46:56;;;;;;;6.05;1.73;;;21.50;99.90;;;;;;4993560;28;20073;-63
2021/12/09 02:49:27;;;;;;;5.70;1.85;;;21.50;99.90;;;;;;4993439;28;20486;-64
2021/12/09 02:51:56;;;;;;;4.95;1.38;;;21.70;99.90;;;;;;4992438;28;20035;-64
2021/12/09 02:54:25;;;;;;;4.28;1.05;;;22.10;99.90;;;;;;4993906;28;20022;-63
2021/12/09 02:56:57;;;;;;;8.85;1.48;;;22.10;99.90;;;;;;4992054;28;20117;-65
2021/12/09 02:59:25;;;;;;;6.75;1.15;;;21.90;99.90;;;;;;4993811;28;20112;-64
2021/12/09 03:01:57;;;;;;;5.40;1.80;;;21.50;99.90;;;;;;4989400;28;20046;-63
2021/12/09 03:04:52;;;;;;;4.80;1.30;;;21.20;99.90;;;;;;4989128;28;20026;-64
2021/12/09 03:07:33;;;;;;;6.55;1.67;;;21.00;99.90;;;;;;4992626;28;20030;-63
2021/12/09 03:10:10;;;;;;;6.60;1.73;;;20.80;99.90;;;;;;4992894;28;20105;-63
2021/12/09 03:12:41;;;;;;;4.25;1.52;;;20.80;99.90;;;;;;4994750;28;20069;-63
2021/12/09 03:15:09;;;;;;;3.90;1.13;;;20.80;99.90;;;;;;4994838;28;20022;-63
2021/12/09 03:17:39;;;;;;;5.38;1.80;;;20.80;99.90;;;;;;4994500;28;20376;-65
2021/12/09 03:20:11;;;;;;;6.53;1.58;;;20.80;99.90;;;;;;4994327;28;20026;-63
2021/12/09 03:22:39;;;;;;;9.95;1.45;;;20.90;99.90;;;;;;4994443;28;20113;-62
2021/12/09 03:25:10;;;;;;;5.03;1.63;;;21.00;99.90;;;;;;4994691;28;20025;-64
2021/12/09 03:27:38;;;;;;;6.45;1.30;;;21.30;99.90;;;;;;4994616;28;20388;-63
2021/12/09 03:30:08;;;;;;;5.22;1.67;;;21.80;99.90;;;;;;4990661;28;20026;-64
2021/12/09 03:32:36;;;;;;;4.25;1.52;;;22.30;99.90;;;;;;4992890;28;20030;-65
2021/12/09 03:35:04;;;;;;;7.10;1.77;;;22.40;99.90;;;;;;4993309;28;20479;-63
2021/12/09 03:37:32;;;;;;;17.85;2.25;;;22.60;99.90;;;;;;4993218;28;20037;-64
2021/12/09 03:39:59;;;;;;;5.30;1.38;;;22.70;99.90;;;;;;4992496;28;20446;-64
2021/12/09 03:42:31;;;;;;;7.43;1.65;;;22.80;99.90;;;;;;4992537;28;20022;-64
2021/12/09 03:44:59;;;;;;;9.10;2.00;;;23.20;99.90;;;;;;4992618;28;20018;-64
2021/12/09 03:47:28;;;;;;;3.92;1.33;;;23.40;99.90;;;;;;4992588;28;20022;-64
2021/12/09 03:49:57;;;;;;;4.90;1.45;;;22.50;99.90;;;;;;4992532;28;20399;-64
2021/12/09 03:52:26;;;;;;;5.47;1.42;;;22.50;99.90;;;;;;4990320;28;20494;-65
2021/12/09 03:54:53;;;;;;;9.45;1.90;;;22.80;99.90;;;;;;4992270;28;20368;-64
2021/12/09 03:57:21;;;;;;;6.00;1.50;;;22.90;99.90;;;;;;4992316;28;20514;-65
2021/12/09 03:59:48;;;;;;;4.32;1.45;;;23.30;99.90;;;;;;4992447;28;20041;-65
2021/12/09 04:02:16;;;;;;;4.50;1.77;;;23.10;99.90;;;;;;4991494;28;20049;-63
2021/12/09 04:04:44;;;;;;;4.97;2.13;;;23.00;99.90;;;;;;4991974;28;20030;-64
2021/12/09 04:07:11;;;;;;;6.55;1.38;;;22.90;99.90;;;;;;4989628;28;20029;-64
2021/12/09 04:09:38;;;;;;;11.95;2.17;;;22.50;99.90;;;;;;4991764;28;20072;-65
2021/12/09 04:12:08;;;;;;;3.78;1.00;;;22.30;99.90;;;;;;4992123;28;20173;-64
2021/12/09 04:14:36;;;;;;;2.60;1.55;;;21.90;99.90;;;;;;4991911;28;20015;-64
2021/12/09 04:17:04;;;;;;;6.80;1.58;;;22.40;99.90;;;;;;4993140;28;20027;-64
2021/12/09 04:19:32;;;;;;;3.97;1.10;;;23.10;99.90;;;;;;4993175;28;20041;-64
2021/12/09 04:21:59;;;;;;;6.18;1.67;;;23.50;99.90;;;;;;4985481;28;20117;-65
2021/12/09 04:24:27;;;;;;;4.65;1.15;;;23.70;99.90;;;;;;4993477;28;20467;-64
2021/12/09 04:26:55;;;;;;;7.93;1.42;;;23.60;99.90;;;;;;4997801;28;20022;-64
2021/12/09 04:29:23;;;;;;;4.68;1.58;;;23.30;99.90;;;;;;4994159;28;20018;-66
2021/12/09 04:31:52;;;;;;;3.92;1.17;;;23.20;99.90;;;;;;4997954;28;20503;-66
2021/12/09 04:34:20;;;;;;;4.68;1.05;;;23.10;99.90;;;;;;4993981;28;20031;-66
2021/12/09 04:36:48;;;;;;;3.63;1.20;;;22.40;99.90;;;;;;4994977;28;20053;-64
2021/12/09 04:39:15;;;;;;;5.57;1.83;;;21.90;99.90;;;;;;4995848;28;20097;-63
2021/12/09 04:41:43;;;;;;;6.88;1.58;;;21.70;99.90;;;;;;4996397;28;20030;-66
2021/12/09 04:44:11;;;;;;;2.95;1.40;;;21.60;99.90;;;;;;4996849;28;20463;-63
2021/12/09 04:46:38;;;;;;;9.00;1.92;;;21.40;99.90;;;;;;4987847;28;20018;-64
2021/12/09 04:49:07;;;;;;;6.40;1.55;;;21.20;99.90;;;;;;4986544;28;20031;-64
2021/12/09 04:51:35;;;;;;;12.02;1.75;;;21.20;99.90;;;;;;4994978;28;20113;-66
2021/12/09 04:54:04;;;;;;;7.03;1.90;;;21.20;99.90;;;;;;4998761;28;20360;-64
2021/12/09 04:56:32;;;;;;;5.40;1.98;;;21.10;99.90;;;;;;5000546;28;20085;-63
2021/12/09 04:59:00;;;;;;;7.55;1.30;;;21.10;99.90;;;;;;4996705;28;20141;-64
2021/12/09 05:01:27;;;;;;;5.35;2.08;;;21.10;99.90;;;;;;4995931;28;20042;-63
2021/12/09 05:03:55;;;;;;;9.35;1.80;;;21.10;99.90;;;;;;4996471;28;20369;-66
2021/12/09 05:06:22;;;;;;;5.85;1.42;;;21.10;99.90;;;;;;4994866;28;20022;-65
2021/12/09 05:08:51;;;;;;;6.50;1.63;;;21.50;99.90;;;;;;4996073;28;20058;-64
2021/12/09 05:11:33;;;;;;;5.00;1.35;;;21.90;99.90;;;;;;4996489;28;20025;-65
2021/12/09 05:14:01;;;;;;;4.93;1.85;;;22.10;99.90;;;;;;4995392;28;20038;-64
2021/12/09 05:16:29;;;;;;;8.13;1.40;;;21.90;99.90;;;;;;4992808;28;20539;-63
2021/12/09 05:18:58;;;;;;;4.78;1.50;;;21.90;99.90;;;;;;4992599;28;20364;-65
2021/12/09 05:21:39;;;;;;;5.47;1.77;;;21.90;99.90;;;;;;4992332;28;20026;-64
2021/12/09 05:24:12;;;;;;;7.40;1.75;;;21.70;99.90;;;;;;4995574;28;20034;-64
2021/12/09 05:26:45;;;;;;;4.20;1.25;;;21.80;99.90;;;;;;4995662;28;20054;-64
2021/12/09 05:29:14;;;;;;;7.43;1.50;;;22.10;99.90;;;;;;4994334;28;20030;-65
2021/12/09 05:34:28;;;;;;;6.10;1.98;;;21.80;99.90;;;;;;4986746;28;20053;-65
2021/12/09 05:36:55;;;;;;;8.80;2.00;;;21.50;99.90;;;;;;4992573;28;20073;-65
2021/12/09 05:39:23;;;;;;;7.72;1.90;;;21.50;99.90;;;;;;4990347;28;20999;-63
2021/12/09 05:41:52;;;;;;;9.18;1.90;;;21.50;99.90;;;;;;4993788;28;20034;-65
2021/12/09 05:44:19;;;;;;;7.80;2.20;;;21.30;99.90;;;;;;4993073;28;20025;-64
2021/12/09 05:46:47;;;;;;;5.53;1.35;;;21.00;99.90;;;;;;4994450;28;20018;-65
2021/12/09 05:49:15;;;;;;;5.82;1.80;;;20.90;99.90;;;;;;4994175;28;20026;-63
2021/12/09 05:51:45;;;;;;;5.78;1.50;;;21.00;99.90;;;;;;4993948;28;20468;-64
2021/12/09 05:54:12;;;;;;;5.05;1.63;;;20.70;99.90;;;;;;4994474;28;20038;-64
2021/12/09 05:56:40;;;;;;;5.63;1.92;;;20.70;99.90;;;;;;4994201;28;20034;-64
2021/12/09 05:59:07;;;;;;;8.43;1.70;;;20.60;99.90;;;;;;4991802;28;20432;-64
2021/12/09 06:01:36;;;;;;;4.65;2.15;;;20.50;99.90;;;;;;4993768;28;20129;-64
2021/12/09 06:04:07;;;;;;;6.70;1.90;;;20.30;99.90;;;;;;4993949;28;20046;-63
2021/12/09 06:06:35;;;;;;;6.47;1.40;;;20.00;99.90;;;;;;4994073;28;20375;-62
2021/12/09 06:09:08;;;;;;;7.50;2.53;;;19.60;99.90;;;;;;4993946;28;20121;-62
2021/12/09 06:11:36;;;;;;;8.07;2.08;;;19.20;99.90;;;;;;4992839;28;20025;-62
2021/12/09 06:14:05;;;;;;;8.63;2.10;;;18.50;99.90;;;;;;4993732;28;20026;-62
2021/12/09 06:16:34;;;;;;;7.68;2.58;;;18.10;99.90;;;;;;4993635;28;20030;-62
2021/12/09 06:19:02;;;;;;;5.50;2.63;;;17.80;99.90;;;;;;4993561;28;20019;-64
2021/12/09 06:21:30;;;;;;;6.03;2.28;;;17.70;99.90;;;;;;4993644;28;20585;-68
2021/12/09 06:24:02;;;;;;;14.95;2.78;;;17.70;99.90;;;;;;4992704;28;20054;-62
2021/12/09 06:26:32;;;;;;;5.80;2.50;;;17.60;99.90;;;;;;4985100;28;20030;-62
2021/12/09 06:29:00;;;;;;;12.90;2.72;;;17.50;99.90;;;;;;4992587;28;20498;-63
2021/12/09 06:31:27;;;;;;;13.10;2.97;;;17.50;99.90;;;;;;4991045;28;20034;-66
2021/12/09 06:33:55;;;;;;;12.93;3.25;;;17.40;99.90;;;;;;4993453;28;20018;-61
2021/12/09 06:36:22;;;;;;;6.40;2.80;;;17.40;99.90;;;;;;4993461;28;20038;-67
2021/12/09 06:38:50;;;;;;;11.13;2.70;;;17.30;99.90;;;;;;4993755;28;20313;-62
2021/12/09 06:41:18;;;;;;;9.27;2.97;;;17.30;99.90;;;;;;4993501;28;20081;-61
2021/12/09 06:43:45;;;;;;;8.13;2.63;;;17.30;99.90;;;;;;4993098;28;20034;-62
2021/12/09 06:46:13;;;;;;;7.40;2.67;;;17.20;99.90;;;;;;4992560;28;20022;-62
2021/12/09 06:48:41;;;;;;;6.45;2.92;;;17.10;99.90;;;;;;4993488;28;20030;-61
2021/12/09 06:51:09;;;;;;;4.75;2.85;;;17.10;99.90;;;;;;4993059;28;20064;-61
2021/12/09 06:53:38;;;;;;;10.65;2.53;;;17.10;99.90;;;;;;4993060;28;20105;-62
2021/12/09 06:56:06;;;;;;;3.65;2.45;;;17.10;99.90;;;;;;4990237;28;20038;-62
2021/12/09 06:58:34;;;;;;;13.48;3.22;;;17.20;99.90;;;;;;4989368;28;20053;-63
2021/12/09 07:01:03;;;;;;;10.23;2.63;;;17.20;99.90;;;;;;4989567;28;20049;-62
2021/12/09 07:03:30;;;;;;;11.93;3.60;;;17.20;99.90;;;;;;4991882;28;20065;-62
2021/12/09 07:06:01;;;;;;;12.13;2.75;;;17.20;99.90;;;;;;4991398;28;20022;-62
2021/12/09 07:08:29;;;;;;;10.40;2.60;;;17.30;99.90;;;;;;4988380;28;20022;-62
2021/12/09 07:10:56;;;;;;;11.63;3.05;;;17.40;99.90;;;;;;4992718;28;20054;-62
2021/12/09 07:13:24;;;;;;;4.97;2.60;;;17.30;99.90;;;;;;4993129;28;20541;-62
2021/12/09 07:15:51;;;;;;;7.05;2.60;;;17.30;99.90;;;;;;4992751;28;20065;-62
2021/12/09 07:18:22;;;;;;;8.50;3.38;;;17.30;99.90;;;;;;4992469;28;20026;-62
2021/12/09 07:20:49;;;;;;;5.43;2.88;;;17.40;99.90;;;;;;4991256;28;20105;-62
2021/12/09 07:23:17;;;;;;;4.30;2.45;;;17.40;99.90;;;;;;4990963;28;20483;-62
2021/12/09 07:25:44;;;;;;;18.20;3.28;;;17.50;99.90;;;;;;4989213;28;20045;-62
2021/12/09 07:28:11;;;;;;;7.40;2.75;;;17.50;99.90;;;;;;4991094;28;20018;-61
2021/12/09 07:30:39;;;;;;;7.45;3.70;;;17.40;99.90;;;;;;4991378;28;20022;-61
2021/12/09 07:33:06;;;;;;;5.32;2.72;;;17.40;99.90;;;;;;4991420;28;20027;-61
2021/12/09 07:35:34;;;;;;;11.88;4.15;;;17.50;99.90;;;;;;4991523;28;20112;-62
2021/12/09 07:38:03;;;;;;;6.47;2.30;;;17.50;99.90;;;;;;4992090;28;20058;-61
2021/12/09 07:40:30;;;;;;;4.63;2.75;;;17.60;99.90;;;;;;4990475;28;20475;-62
2021/12/09 07:42:58;;;;;;;11.48;3.10;;;17.60;99.90;;;;;;4990340;28;20041;-61
2021/12/09 07:45:26;;;;;;;9.35;2.63;;;17.70;99.90;;;;;;4991499;28;20077;-61
2021/12/09 07:47:54;;;;;;;6.63;3.28;;;17.70;99.90;;;;;;4991439;28;20415;-62
2021/12/09 07:50:24;;;;;;;13.85;2.88;;;17.70;99.90;;;;;;4990862;28;20019;-63
2021/12/09 07:52:53;;;;;;;6.57;2.67;;;17.60;99.90;;;;;;4991685;28;20085;-62
2021/12/09 07:55:22;;;;;;;7.45;2.97;;;17.60;99.90;;;;;;4992143;28;20034;-61
2021/12/09 07:57:50;;;;;;;6.60;2.80;;;17.50;99.90;;;;;;4991480;28;20026;-62
2021/12/09 08:00:38;;;;;;;7.32;2.60;;;17.40;99.90;;;;;;4991500;28;20026;-61
2021/12/09 08:03:05;;;;;;;6.53;3.15;;;17.30;99.90;;;;;;4990515;28;20446;-61
2021/12/09 08:05:37;;;;;;;5.72;2.97;;;17.30;99.90;;;;;;4991671;28;20187;-61
2021/12/09 08:08:05;;;;;;;9.10;3.08;;;17.30;99.90;;;;;;4991100;28;20085;-62
2021/12/09 08:10:33;;;;;;;11.02;3.33;;;17.20;99.90;;;;;;4989429;28;20034;-61
2021/12/09 08:13:01;;;;;;;5.18;3.28;;;17.20;99.90;;;;;;4989963;28;20038;-61
2021/12/09 08:15:35;;;;;;;9.95;3.38;;;17.30;99.90;;;;;;4991348;28;20039;-61
2021/12/09 08:20:49;;;;;;;7.25;3.13;;;17.20;99.90;;;;;;4991229;28;20177;-61
2021/12/09 08:23:17;;;;;;;9.27;3.45;;;17.20;99.90;;;;;;5005905;28;20501;-64
2021/12/09 08:25:47;;;;;;;10.80;2.70;;;17.10;99.90;;;;;;4991056;28;20368;-61
2021/12/09 08:28:14;;;;;;;7.32;3.47;;;17.10;99.90;;;;;;4990074;28;20493;-67
2021/12/09 08:30:42;;;;;;;9.35;2.58;;;17.10;99.90;;;;;;4991454;28;20033;-62
2021/12/09 08:33:10;;;;;;;6.80;2.67;;;17.10;99.90;;;;;;4991132;28;20427;-63
2021/12/09 08:35:38;;;;;;;8.10;2.88;;;17.20;99.90;;;;;;4990257;28;20037;-62
2021/12/09 08:38:07;;;;;;;15.38;3.95;;;17.20;99.90;;;;;;4991255;28;20526;-67
2021/12/09 08:40:35;;;;;;;5.63;2.58;;;17.10;99.90;;;;;;4991023;28;20026;-62
2021/12/09 08:43:04;;;;;;;8.80;3.03;;;17.10;99.90;;;;;;4989772;28;20069;-62
2021/12/09 08:45:32;;;;;;;7.25;2.83;;;17.20;99.90;;;;;;4990923;28;20557;-65
2021/12/09 08:47:59;;;;;;;7.93;3.40;;;17.20;99.90;;;;;;4991352;28;20045;-63
2021/12/09 08:50:33;;;;;;;4.68;2.58;;;17.20;99.90;;;;;;4990219;28;20114;-62
2021/12/09 08:53:01;;;;;;;12.30;2.90;;;17.20;99.90;;;;;;4990914;28;20479;-62
2021/12/09 08:55:29;;;;;;;4.90;3.40;;;17.20;99.90;;;;;;4990720;28;20038;-62
2021/12/09 08:57:56;;;;;;;7.97;3.13;;;17.20;99.90;;;;;;4991355;28;20057;-63
2021/12/09 09:00:26;;;;;;;10.02;3.22;;;17.20;99.90;;;;;;4991043;28;20058;-67
2021/12/09 09:02:53;;;;;;;9.05;3.70;;;17.20;99.90;;;;;;4988000;28;20074;-61
2021/12/09 09:05:21;;;;;;;10.40;3.75;;;17.20;99.90;;;;;;4990616;28;20554;-62
2021/12/09 09:07:50;;;;;;;9.15;2.83;;;17.20;99.90;;;;;;4991688;28;20027;-65
2021/12/09 09:10:22;;;;;;;10.48;3.85;;;17.20;99.90;;;;;;4993880;28;20472;-62
2021/12/09 09:12:50;;;;;;;5.68;3.20;;;17.20;99.90;;;;;;4993738;28;20101;-61
2021/12/09 09:15:20;;;;;;;6.90;3.65;;;17.20;99.90;;;;;;4994342;28;20460;-62
2021/12/09 09:17:50;;;;;;;10.82;3.22;;;17.20;99.90;;;;;;4994459;28;20054;-61
2021/12/09 09:20:20;;;;;;;11.50;3.67;;;17.20;99.90;;;;;;4994634;28;20026;-62
2021/12/09 09:22:49;;;;;;;10.98;3.63;;;17.20;99.90;;;;;;4994066;28;20061;-62
2021/12/09 09:25:20;;;;;;;8.85;3.90;;;17.20;99.90;;;;;;4994330;28;20039;-62
2021/12/09 09:27:49;;;;;;;9.95;4.55;;;17.20;99.90;;;;;;4993561;28;20531;-64
2021/12/09 09:30:19;;;;;;;13.98;4.15;;;17.30;99.90;;;;;;4993894;28;20018;-62
2021/12/09 09:32:49;;;;;;;7.93;3.45;;;17.30;99.90;;;;;;4993403;28;20022;-61
2021/12/09 09:35:17;;;;;;;8.63;3.75;;;17.30;99.90;;;;;;4993764;28;20030;-61
2021/12/09 09:37:48;;;;;;;9.80;3.75;;;17.30;99.90;;;;;;4993150;28;20034;-61
2021/12/09 09:40:27;;;;;;;10.65;3.13;;;17.30;99.90;;;;;;4992983;28;20121;-62
2021/12/09 09:43:05;;;;;;;6.88;3.13;;;17.30;99.90;;;;;;4993772;28;20058;-62
2021/12/09 09:45:34;;;;;;;6.45;3.13;;;17.30;99.90;;;;;;4993728;28;20110;-62
2021/12/09 09:48:02;;;;;;;5.13;2.53;;;17.30;99.90;;;;;;4993009;28;20045;-62
2021/12/09 09:50:29;;;;;;;12.38;3.53;;;17.30;99.90;;;;;;4991585;28;20027;-62
2021/12/09 09:52:58;;;;;;;8.15;3.10;;;17.30;99.90;;;;;;4993298;28;20386;-62
2021/12/09 09:55:25;;;;;;;10.80;3.85;;;17.30;99.90;;;;;;4993126;28;20057;-62
2021/12/09 09:57:53;;;;;;;13.05;3.65;;;17.30;99.90;;;;;;4993499;28;20034;-62
2021/12/09 10:00:22;;;;;;;13.60;3.53;;;17.20;99.90;;;;;;4993595;28;20023;-62
2021/12/09 10:02:54;;;;;;;7.30;2.63;;;17.30;99.90;;;;;;4993522;28;20077;-62
2021/12/09 10:05:28;;;;;;;5.95;3.15;;;17.30;99.90;;;;;;4992741;28;20034;-62
2021/12/09 10:07:56;;;;;;;10.05;3.90;;;17.30;99.90;;;;;;4993496;28;20023;-62
2021/12/09 10:10:23;;;;;;;8.25;3.45;;;17.30;99.90;;;;;;4992953;28;20054;-62
2021/12/09 10:13:09;;;;;;;14.38;4.05;;;17.30;99.90;;;;;;4993609;28;20754;-62
2021/12/09 10:15:51;;;;;;;9.02;2.92;;;17.30;99.90;;;;;;4992346;28;20495;-62
2021/12/09 10:18:46;;;;;;;8.60;3.10;;;17.30;99.90;;;;;;4993264;28;20030;-62
2021/12/09 10:21:24;;;;;;;12.25;3.60;;;17.30;99.90;;;;;;4992024;28;20050;-61
2021/12/09 10:24:06;;;;;;;9.38;3.50;;;17.30;99.90;;;;;;4993364;28;20050;-62
2021/12/09 10:26:45;;;;;;;6.47;3.58;;;17.30;99.90;;;;;;4992596;28;20034;-62
2021/12/09 10:29:34;;;;;;;9.52;3.90;;;17.30;99.90;;;;;;4993015;28;20026;-62
2021/12/09 10:32:12;;;;;;;11.15;4.43;;;17.40;99.90;;;;;;4992433;28;20041;-62
2021/12/09 10:34:46;;;;;;;8.70;4.18;;;17.40;99.90;;;;;;4993063;28;20607;-62
2021/12/09 10:37:21;;;;;;;9.77;3.33;;;17.30;99.90;;;;;;4991809;28;20034;-62
2021/12/09 10:39:48;;;;;;;;;;;17.30;99.90;;;;;;4993233;28;20084;-62
2021/12/09 10:42:18;;;;;;;12.55;4.13;;;17.30;99.90;;;;;;4992876;28;19917;-62
2021/12/09 10:44:51;;;;;;;13.38;4.72;;;17.30;99.90;;;;;;4992115;28;20030;-62
2021/12/09 10:55:53;;;;;;;8.70;4.22;;;17.30;99.90;;;;;;4992676;28;20109;-62
2021/12/09 10:58:28;;;;;;;10.05;4.55;;;17.40;99.90;;;;;;4992774;28;20105;-62
2021/12/09 11:00:57;;;;;;;8.13;4.70;;;17.30;99.90;;;;;;4991813;28;20042;-62
2021/12/09 11:03:35;;;;;;;7.10;4.68;;;17.40;99.90;;;;;;4992504;28;20034;-61
2021/12/09 11:06:15;;;;;;;11.15;5.05;;;17.40;99.90;;;;;;4992256;28;20026;-62
2021/12/09 11:08:49;;;;;;;10.75;5.30;;;17.40;99.90;;;;;;4992274;28;20443;-61
2021/12/09 11:11:36;;;;;;;10.27;5.65;;;17.30;99.90;;;;;;4990686;28;20041;-61
2021/12/09 11:14:18;;;;;;;10.90;4.97;;;17.30;99.90;;;;;;4991805;28;20491;-61
2021/12/09 11:17:08;;;;;;;9.70;4.20;;;17.40;99.90;;;;;;4991829;28;20403;-62
2021/12/09 11:19:40;;;;;;;11.50;5.90;;;17.40;99.90;;;;;;4992316;28;20041;-62
2021/12/09 11:22:10;;;;;;;12.63;6.15;;;17.50;99.90;;;;;;4989777;28;20033;-61
2021/12/09 11:24:43;;;;;;;15.85;8.70;;;17.40;99.90;;;;;;4991416;28;20050;-62
2021/12/09 11:27:13;;;;;;;15.60;6.97;;;17.40;99.90;;;;;;4991946;28;20402;-61
2021/12/09 11:29:52;;;;;;;10.13;4.25;;;17.30;99.90;;;;;;4992022;28;20027;-62
2021/12/09 11:32:41;;;;;;;10.95;4.95;;;17.30;99.90;;;;;;4990828;28;20026;-61
2021/12/09 11:35:19;;;;;;;7.65;3.53;;;17.20;99.90;;;;;;4989508;28;20117;-61
2021/12/09 11:38:01;;;;;;;8.10;3.80;;;17.20;99.90;;;;;;4991694;28;20031;-62
2021/12/09 11:40:47;;;;;;;17.92;4.70;;;17.20;99.90;;;;;;4989045;28;20111;-61
2021/12/09 11:43:21;;;;;;;7.55;3.53;;;17.20;99.90;;;;;;4990034;28;20133;-61
2021/12/09 11:45:50;;;;;;;10.00;3.80;;;17.00;99.90;;;;;;4991268;28;20050;-61
2021/12/09 11:48:18;;;;;;;13.05;5.32;;;17.00;99.90;;;;;;4991834;28;20081;-61
2021/12/09 11:50:51;;;;;;;15.90;4.70;;;16.90;99.90;;;;;;4991603;28;20014;-62
2021/12/09 11:53:22;;;;;;;9.23;4.32;;;16.90;99.90;;;;;;4991795;28;20546;-61
2021/12/09 11:56:02;;;;;;;8.23;4.15;;;16.90;99.90;;;;;;4989247;28;20306;-62
2021/12/09 11:58:37;;;;;;;10.70;4.40;;;16.80;99.90;;;;;;4989351;28;20108;-65
2021/12/09 12:07:43;;;;;;;8.80;4.55;;;16.90;99.90;;;;;;4989854;28;20380;-61
2021/12/09 12:13:06;;;;;;;12.68;5.00;;;16.80;99.90;;;;;;4985484;28;20113;-66
2021/12/09 12:18:53;;;;;;;6.10;3.33;;;17.00;99.90;;;;;;4992165;28;20555;-66
2021/12/09 12:24:34;;;;;;;11.18;4.80;;;17.10;99.90;;;;;;4991202;28;20081;-64
2021/12/09 12:27:16;;;;;;;10.63;4.20;;;17.10;99.90;;;;;;4993025;28;20026;-61
2021/12/09 12:30:17;;;;;;;6.47;3.80;;;17.00;99.90;;;;;;4991737;28;20048;-63
2021/12/09 12:40:40;;;;;;;6.43;3.47;;;17.10;99.90;;;;;;4992917;28;20026;-63
2021/12/09 12:43:16;;;;;;;9.27;3.33;;;17.10;99.90;;;;;;4993244;28;20107;-61
2021/12/09 12:51:11;;;;;;;6.05;3.55;;;17.00;99.90;;;;;;4996175;28;20023;-66
2021/12/09 12:53:44;;;;;;;4.25;3.60;;;16.90;99.90;;;;;;4996558;28;20061;-63
2021/12/09 12:56:20;;;;;;;4.35;2.85;;;16.90;99.90;;;;;;4996423;28;20450;-64
2021/12/09 12:59:19;;;;;;;5.15;2.80;;;16.80;99.90;;;;;;4979699;28;20388;-65
2021/12/09 13:02:05;;;;;;;3.40;2.00;;;16.80;99.90;;;;;;4991221;28;20041;-63
2021/12/09 13:08:10;;;;;;;4.70;2.83;;;16.80;99.90;;;;;;4987705;28;20146;-63
2021/12/09 13:21:51;;;;;;;3.53;2.38;;;17.00;99.90;;;;;;4996345;28;20026;-65
2021/12/09 13:24:52;;;;;;;7.15;2.88;;;17.00;99.90;;;;;;4995261;28;20053;-63
2021/12/09 13:47:23;;;;;;;4.80;2.28;;;16.90;99.90;;;;;;4977441;28;20138;-65
2021/12/09 13:50:12;;;;;;;3.63;2.33;;;16.90;99.90;;;;;;4976940;28;20089;-65
2021/12/09 13:55:24;;;;;;;5.85;1.75;;;16.90;99.90;;;;;;4976086;28;20023;-65
2021/12/09 13:57:58;;;;;;;8.15;1.70;;;16.90;99.90;;;;;;4976839;28;20034;-62
2021/12/09 14:00:34;;;;;;;9.75;1.63;;;16.80;99.90;;;;;;4976702;28;20050;-65
2021/12/09 14:03:13;;;;;;;4.63;1.23;;;16.80;99.90;;;;;;4976800;28;20466;-65
2021/12/09 14:05:52;;;;;;;7.57;1.00;;;16.70;99.90;;;;;;4976823;28;20125;-65
2021/12/09 14:08:40;;;;;;;0.60;0.40;;;16.40;99.90;;;;;;4994628;28;20026;-62
2021/12/09 14:11:15;;;;;;;1.52;0.55;;;16.20;99.90;;;;;;4994855;28;20507;-62
2021/12/09 14:13:48;;;;;;;3.78;0.52;;;15.80;99.90;;;;;;4996075;28;20031;-63
2021/12/09 14:16:55;;;;;;;3.00;0.50;;;15.60;99.90;;;;;;4995878;28;20438;-61
2021/12/09 14:21:44;;;;;;;2.05;0.50;;;15.00;99.90;;;;;;4995846;28;20045;-61
2021/12/09 14:24:15;;;;;;;2.92;0.73;;;14.90;99.90;;;;;;4995962;28;20710;-61
2021/12/09 14:26:49;;;;;;;3.05;0.63;;;14.70;99.90;;;;;;4995785;28;20069;-61